首页
METAR-TAF:

METAR-TAF

机场 :

臺北, 台湾

臺灣桃園國際機場

纬度: 25-05N, 经度: 121-13E, 海拔: 33米

当前天气观测

该预报发布于20分钟前的03:00 UTC
风速16节,风向东北
温度 20°C
湿度 88%
气压 1018 hPa
能見度: 8000
少量云层高于1200英尺
多云层高于2000英尺
多云层高于8000英尺

METAR: RCTP 200300Z 04016KT 8000 FEW012 BKN020 BKN080 20/18 Q1018 NOSIG RMK A3006

时间: 11:20 (03:20 UTC)

预报

该预报发布于4小时和20分钟前的23:00 UTC
预报有效从20日的 00点(UTC)到 21日的 06点(UTC)
风速14节,风向东北
能见度10公里或以上
少量云层高于700英尺
多云层高于1200英尺
多云层高于2500英尺
短暂存在
从 20日的 00点(UTC)到 20日的 03点(UTC)
能見度: 5000
散云层高于400英尺
多云层高于800英尺
多云层高于1500英尺
短暂存在
从 20日的 03点(UTC)到 20日的 09点(UTC)
散云层高于1200英尺
多云层高于3200英尺
短暂存在
从 20日的 09点(UTC)到 20日的 15点(UTC)
少量云层高于400英尺
多云层高于700英尺
多云层高于1500英尺
短暂存在
从 20日的 17点(UTC)到 20日的 23点(UTC)
能見度: 5000
散云层高于400英尺
多云层高于600英尺
多云层高于1200英尺
轻雾
成为
从 21日的 02点(UTC)到 21日的 04点(UTC)
少量云层高于2000英尺
多云层高于3200英尺

TAF: RCTP 192300Z 2000/2106 05014KT 9999 FEW007 BKN012 BKN025 TEMPO 2000/2003 5000 RA SCT004 BKN008 BKN015 TEMPO 2003/2009 SCT012 BKN032 TEMPO 2009/2015 FEW004 BKN007 BKN015 TEMPO 2017/2023 5000 BR SCT004 BKN006 BKN012 BECMG 2102/2104 FEW020 BKN032

超过4000个机场的气象观测和天气预报(METAR&TAF报告)。

可查询的气象台以黄色和红色小点在地图上表示。

将鼠标移到小点上方,可查看气象台名称。

然后点击查看天气观测和预报。

如需切换地图:点击带黑十字的绿色按钮放大地图;点击带横线的绿色按钮缩小地图;或者点击绿色箭头查看邻近地区的地图。


METAR-TAF: